Garwin, Iowa
Current Conditions -  °F | °C
As of 12:53 AM on Saturday 25 Oct 2014 (Local Time) from KMIW Reporting Station
Moderate Fog Moderate Fog  
Wind Chill: 12°   Ceiling: 100
Heat Index: 12°   Visibility: 0mi
Dew Point: 12°   Wind: 3mph
Humidity: 100%   Direction: 270°W
Pressure: 29.95"   Gusts: NA
Location:  42.09°N, 92.68°W
Report Text: KMIW 250553Z AUTO 27003KT M1/4SM FG VV001 12/12 A2995 RMK AO2 SLP142 T01220122 10161 20117 401720056 51005
Loading
Personal Weather Stations






























Interactive Weather Map
Tropical Storm Tracking
New forecast layout! Learn more

10-Day Weather Forecast

Advertisements
Track Severe Weather on mobile